Huvudsida
METAR-TAF:

METAR-TAF

Flygplatser :

Khartoum, Sudan

latitud: 15-36N, longitud: 032-33E, höjd: 382 m

Aktuellt väderrapport

Denna rapport gjordes för 14 minuter sedan, klockan 12:30 UTC
Vind 12 kt från nord/nordväst
Temperatur 29°C
Fuktighet 16%
Tryck 1016 hPa
Sikt 10 km eller mer
Inga moln under 1 500 m eller inga cumulonimbus

METAR: HSSS 121230Z 34012KT CAVOK 29/01 Q1016 NOSIG

Tid: 15:44 (12:44 UTC)

Väderprognos

Denna rapport gjordes för 1 timme och 44 minuter sedan, klockan 11:00 UTC
Prognos gäller från 12 kl. 12 UTC till 13 kl. 18 UTC
Vind 12 kt från nord i byarna ända upp till 22 kt
Sikt 10 km eller mer
Inga moln under 1 500 m eller inga cumulonimbus
Sannolikhet 30%
från 12 kl. 18 UTC till 12 kl. 21 UTC
Sikt: 6000 m
Temporärt
från 13 kl. 04 UTC till 13 kl. 07 UTC
Sikt: 4000 m
högt sanddrev

TAF: HSSS 121100Z 1212/1318 35012G22KT CAVOK PROB30 1218/1221 6000 TEMPO 1304/1307 4000 BLSA

Aktuella väderrapporter och prognoser från 4000 flygplatser (METAR- och TAF-rapporter).

De tillgängliga stationerna syns som gula och röda prickar på kartan.

För musen över prickarna för att se namnen på stationerna.

Klicka sedan för att få väderrapporter och prognoser.

För att ändra kartan: Klicka på de gröna knapparna med ett svart kors på för att zooma in; den gröna knappen med ett streck på för att zooma ut; eller på de gröna pilarna för angränsande kartor.


METAR-TAF: